sensor_id;sensor_type;location;lat;lon;timestamp;temperature;humidity
10042;DHT22;5061;49.068;12.058;2023-06-05T00:01:25;17.70;56.20
10042;DHT22;5061;49.068;12.058;2023-06-05T00:04:46;17.70;53.40
10042;DHT22;5061;49.068;12.058;2023-06-05T00:08:06;17.70;54.50
10042;DHT22;5061;49.068;12.058;2023-06-05T00:11:28;17.70;55.70
10042;DHT22;5061;49.068;12.058;2023-06-05T00:14:48;17.60;52.50
10042;DHT22;5061;49.068;12.058;2023-06-05T00:18:09;17.60;52.30
10042;DHT22;5061;49.068;12.058;2023-06-05T00:21:30;17.60;53.80
10042;DHT22;5061;49.068;12.058;2023-06-05T00:24:51;17.50;51.30
10042;DHT22;5061;49.068;12.058;2023-06-05T00:28:11;17.50;51.40
10042;DHT22;5061;49.068;12.058;2023-06-05T00:31:32;17.50;51.90
10042;DHT22;5061;49.068;12.058;2023-06-05T00:34:53;17.40;51.10
10042;DHT22;5061;49.068;12.058;2023-06-05T00:38:13;17.50;51.60
10042;DHT22;5061;49.068;12.058;2023-06-05T00:41:35;17.40;50.20
10042;DHT22;5061;49.068;12.058;2023-06-05T00:44:56;17.40;49.90
10042;DHT22;5061;49.068;12.058;2023-06-05T00:48:17;17.40;51.90
10042;DHT22;5061;49.068;12.058;2023-06-05T00:51:40;17.30;50.30
10042;DHT22;5061;49.068;12.058;2023-06-05T00:55:02;17.30;50.20
10042;DHT22;5061;49.068;12.058;2023-06-05T00:58:22;17.20;50.40
10042;DHT22;5061;49.068;12.058;2023-06-05T01:01:44;17.20;51.70
10042;DHT22;5061;49.068;12.058;2023-06-05T01:05:06;17.20;52.00
10042;DHT22;5061;49.068;12.058;2023-06-05T01:08:27;17.10;52.10
10042;DHT22;5061;49.068;12.058;2023-06-05T01:15:55;16.90;56.00
10042;DHT22;5061;49.068;12.058;2023-06-05T01:19:17;16.90;54.00
10042;DHT22;5061;49.068;12.058;2023-06-05T01:22:38;16.80;52.60
10042;DHT22;5061;49.068;12.058;2023-06-05T01:26:00;16.70;52.10
10042;DHT22;5061;49.068;12.058;2023-06-05T01:29:32;16.80;55.50
10042;DHT22;5061;49.068;12.058;2023-06-05T01:33:00;16.70;54.70
10042;DHT22;5061;49.068;12.058;2023-06-05T01:36:23;16.70;57.40
10042;DHT22;5061;49.068;12.058;2023-06-05T01:39:47;16.70;56.60
10042;DHT22;5061;49.068;12.058;2023-06-05T01:43:09;16.60;53.10
10042;DHT22;5061;49.068;12.058;2023-06-05T01:46:29;16.60;52.50
10042;DHT22;5061;49.068;12.058;2023-06-05T01:49:50;16.50;52.30
10042;DHT22;5061;49.068;12.058;2023-06-05T01:53:10;16.50;53.50
10042;DHT22;5061;49.068;12.058;2023-06-05T01:56:32;16.50;52.70
10042;DHT22;5061;49.068;12.058;2023-06-05T01:59:55;16.50;53.10
10042;DHT22;5061;49.068;12.058;2023-06-05T02:03:16;16.40;52.60
10042;DHT22;5061;49.068;12.058;2023-06-05T02:06:36;16.40;54.10
10042;DHT22;5061;49.068;12.058;2023-06-05T02:10:02;16.40;52.30
10042;DHT22;5061;49.068;12.058;2023-06-05T02:13:25;16.40;52.30
10042;DHT22;5061;49.068;12.058;2023-06-05T02:16:48;16.30;53.40
10042;DHT22;5061;49.068;12.058;2023-06-05T02:20:08;16.30;53.20
10042;DHT22;5061;49.068;12.058;2023-06-05T02:23:30;16.20;53.30
10042;DHT22;5061;49.068;12.058;2023-06-05T02:26:52;16.20;53.60
10042;DHT22;5061;49.068;12.058;2023-06-05T02:30:13;16.20;52.80
10042;DHT22;5061;49.068;12.058;2023-06-05T02:33:33;16.10;53.90
10042;DHT22;5061;49.068;12.058;2023-06-05T02:36:54;16.10;52.60
10042;DHT22;5061;49.068;12.058;2023-06-05T02:40:15;16.00;53.10
10042;DHT22;5061;49.068;12.058;2023-06-05T02:43:36;15.90;61.10
10042;DHT22;5061;49.068;12.058;2023-06-05T02:46:57;15.90;53.10
10042;DHT22;5061;49.068;12.058;2023-06-05T02:50:17;15.90;53.70
10042;DHT22;5061;49.068;12.058;2023-06-05T02:53:38;15.80;53.70
10042;DHT22;5061;49.068;12.058;2023-06-05T02:56:59;15.80;54.70
10042;DHT22;5061;49.068;12.058;2023-06-05T03:00:20;15.70;54.10
10042;DHT22;5061;49.068;12.058;2023-06-05T03:03:42;15.70;54.70
10042;DHT22;5061;49.068;12.058;2023-06-05T03:07:03;15.60;54.10
10042;DHT22;5061;49.068;12.058;2023-06-05T03:10:24;15.60;53.80
10042;DHT22;5061;49.068;12.058;2023-06-05T03:13:44;15.50;54.40
10042;DHT22;5061;49.068;12.058;2023-06-05T03:17:05;15.50;54.90
10042;DHT22;5061;49.068;12.058;2023-06-05T03:20:26;15.50;55.60
10042;DHT22;5061;49.068;12.058;2023-06-05T03:23:46;15.30;56.40
10042;DHT22;5061;49.068;12.058;2023-06-05T03:27:07;15.30;56.10
10042;DHT22;5061;49.068;12.058;2023-06-05T03:30:27;15.30;55.50
10042;DHT22;5061;49.068;12.058;2023-06-05T03:33:48;15.30;54.40
10042;DHT22;5061;49.068;12.058;2023-06-05T03:37:09;15.20;54.90
10042;DHT22;5061;49.068;12.058;2023-06-05T03:40:29;15.20;54.40
10042;DHT22;5061;49.068;12.058;2023-06-05T03:43:50;15.10;55.50
10042;DHT22;5061;49.068;12.058;2023-06-05T03:47:11;15.10;55.30
10042;DHT22;5061;49.068;12.058;2023-06-05T03:50:35;15.00;55.90
10042;DHT22;5061;49.068;12.058;2023-06-05T03:53:59;15.00;55.80
10042;DHT22;5061;49.068;12.058;2023-06-05T03:57:21;14.90;55.50
10042;DHT22;5061;49.068;12.058;2023-06-05T04:00:44;15.00;55.60
10042;DHT22;5061;49.068;12.058;2023-06-05T04:04:05;15.00;56.30
10042;DHT22;5061;49.068;12.058;2023-06-05T04:07:26;14.90;56.90
10042;DHT22;5061;49.068;12.058;2023-06-05T04:10:46;15.00;56.40
10042;DHT22;5061;49.068;12.058;2023-06-05T04:14:08;15.00;55.70
10042;DHT22;5061;49.068;12.058;2023-06-05T04:17:29;15.00;55.30
10042;DHT22;5061;49.068;12.058;2023-06-05T04:20:50;14.90;55.70
10042;DHT22;5061;49.068;12.058;2023-06-05T04:24:10;14.90;57.30
10042;DHT22;5061;49.068;12.058;2023-06-05T04:27:31;14.90;56.90
10042;DHT22;5061;49.068;12.058;2023-06-05T04:30:52;14.80;56.90
10042;DHT22;5061;49.068;12.058;2023-06-05T04:34:12;14.80;56.80
10042;DHT22;5061;49.068;12.058;2023-06-05T04:37:33;14.90;56.30
10042;DHT22;5061;49.068;12.058;2023-06-05T04:40:55;14.90;57.20
10042;DHT22;5061;49.068;12.058;2023-06-05T04:44:16;14.90;57.20
10042;DHT22;5061;49.068;12.058;2023-06-05T04:47:37;14.90;56.60
10042;DHT22;5061;49.068;12.058;2023-06-05T04:50:58;14.90;56.90
10042;DHT22;5061;49.068;12.058;2023-06-05T04:54:19;15.00;57.00
10042;DHT22;5061;49.068;12.058;2023-06-05T04:57:40;15.00;56.40
10042;DHT22;5061;49.068;12.058;2023-06-05T05:01:03;15.00;57.00
10042;DHT22;5061;49.068;12.058;2023-06-05T05:04:25;15.10;57.90
10042;DHT22;5061;49.068;12.058;2023-06-05T05:07:46;15.10;57.20
10042;DHT22;5061;49.068;12.058;2023-06-05T05:11:06;15.20;57.70
10042;DHT22;5061;49.068;12.058;2023-06-05T05:14:27;15.30;58.30
10042;DHT22;5061;49.068;12.058;2023-06-05T05:17:48;15.30;60.80
10042;DHT22;5061;49.068;12.058;2023-06-05T05:21:09;15.40;58.20
10042;DHT22;5061;49.068;12.058;2023-06-05T05:24:30;15.50;59.30
10042;DHT22;5061;49.068;12.058;2023-06-05T05:27:51;15.60;59.40
10042;DHT22;5061;49.068;12.058;2023-06-05T05:31:11;15.70;60.00
10042;DHT22;5061;49.068;12.058;2023-06-05T05:34:32;15.80;60.90
10042;DHT22;5061;49.068;12.058;2023-06-05T05:37:54;15.90;62.70
10042;DHT22;5061;49.068;12.058;2023-06-05T05:41:15;16.00;61.00
10042;DHT22;5061;49.068;12.058;2023-06-05T05:44:35;16.10;61.50
10042;DHT22;5061;49.068;12.058;2023-06-05T05:47:56;16.10;61.00
10042;DHT22;5061;49.068;12.058;2023-06-05T05:51:17;16.20;61.40
10042;DHT22;5061;49.068;12.058;2023-06-05T05:54:38;16.30;61.80
10042;DHT22;5061;49.068;12.058;2023-06-05T05:57:58;16.40;61.20
10042;DHT22;5061;49.068;12.058;2023-06-05T06:01:19;16.40;62.40
10042;DHT22;5061;49.068;12.058;2023-06-05T06:04:39;16.50;61.00
10042;DHT22;5061;49.068;12.058;2023-06-05T06:08:01;16.70;62.80
10042;DHT22;5061;49.068;12.058;2023-06-05T06:11:22;16.80;61.90
10042;DHT22;5061;49.068;12.058;2023-06-05T06:14:43;16.80;62.40
10042;DHT22;5061;49.068;12.058;2023-06-05T06:18:04;16.80;62.90
10042;DHT22;5061;49.068;12.058;2023-06-05T06:21:24;16.90;62.60
10042;DHT22;5061;49.068;12.058;2023-06-05T06:24:46;17.00;63.50
10042;DHT22;5061;49.068;12.058;2023-06-05T06:28:06;17.20;64.40
10042;DHT22;5061;49.068;12.058;2023-06-05T06:31:27;17.30;65.10
10042;DHT22;5061;49.068;12.058;2023-06-05T06:34:48;17.50;64.70
10042;DHT22;5061;49.068;12.058;2023-06-05T06:38:09;17.60;66.60
10042;DHT22;5061;49.068;12.058;2023-06-05T06:41:30;17.80;71.30
10042;DHT22;5061;49.068;12.058;2023-06-05T06:44:50;17.90;70.40
10042;DHT22;5061;49.068;12.058;2023-06-05T06:48:16;18.00;69.00
10042;DHT22;5061;49.068;12.058;2023-06-05T06:51:40;18.10;69.00
10042;DHT22;5061;49.068;12.058;2023-06-05T06:55:01;18.20;69.50
10042;DHT22;5061;49.068;12.058;2023-06-05T06:58:21;18.30;71.30
10042;DHT22;5061;49.068;12.058;2023-06-05T07:01:44;18.40;71.10
10042;DHT22;5061;49.068;12.058;2023-06-05T07:05:08;18.50;72.10
10042;DHT22;5061;49.068;12.058;2023-06-05T07:08:29;18.60;71.80
10042;DHT22;5061;49.068;12.058;2023-06-05T07:11:50;18.60;72.30
10042;DHT22;5061;49.068;12.058;2023-06-05T07:15:11;18.70;74.20
10042;DHT22;5061;49.068;12.058;2023-06-05T07:18:31;18.70;74.20
10042;DHT22;5061;49.068;12.058;2023-06-05T07:21:54;18.80;75.50
10042;DHT22;5061;49.068;12.058;2023-06-05T07:25:19;18.80;76.70
10042;DHT22;5061;49.068;12.058;2023-06-05T07:28:41;18.90;76.70
10042;DHT22;5061;49.068;12.058;2023-06-05T07:32:02;19.00;77.40
10042;DHT22;5061;49.068;12.058;2023-06-05T07:35:26;19.00;77.60
10042;DHT22;5061;49.068;12.058;2023-06-05T07:38:47;19.10;77.50
10042;DHT22;5061;49.068;12.058;2023-06-05T07:42:07;19.20;78.80
10042;DHT22;5061;49.068;12.058;2023-06-05T07:45:28;19.30;79.50
10042;DHT22;5061;49.068;12.058;2023-06-05T07:48:49;19.40;81.00
10042;DHT22;5061;49.068;12.058;2023-06-05T07:52:09;19.50;80.80
10042;DHT22;5061;49.068;12.058;2023-06-05T07:55:30;19.60;81.20
10042;DHT22;5061;49.068;12.058;2023-06-05T07:58:51;19.60;82.00
10042;DHT22;5061;49.068;12.058;2023-06-05T08:02:11;19.70;82.40
10042;DHT22;5061;49.068;12.058;2023-06-05T08:05:32;19.80;82.50
10042;DHT22;5061;49.068;12.058;2023-06-05T08:08:53;19.90;84.70
10042;DHT22;5061;49.068;12.058;2023-06-05T08:12:14;20.00;84.40
10042;DHT22;5061;49.068;12.058;2023-06-05T08:15:35;20.10;85.10
10042;DHT22;5061;49.068;12.058;2023-06-05T08:18:56;20.20;85.20
10042;DHT22;5061;49.068;12.058;2023-06-05T08:22:18;20.40;84.50
10042;DHT22;5061;49.068;12.058;2023-06-05T08:25:39;20.50;84.60
10042;DHT22;5061;49.068;12.058;2023-06-05T08:29:00;20.70;86.50
10042;DHT22;5061;49.068;12.058;2023-06-05T08:32:20;20.80;86.20
10042;DHT22;5061;49.068;12.058;2023-06-05T08:35:41;20.90;85.80
10042;DHT22;5061;49.068;12.058;2023-06-05T08:39:02;21.10;85.90
10042;DHT22;5061;49.068;12.058;2023-06-05T08:42:25;21.20;86.00
10042;DHT22;5061;49.068;12.058;2023-06-05T08:45:51;21.40;85.00
10042;DHT22;5061;49.068;12.058;2023-06-05T08:49:17;21.50;85.30
10042;DHT22;5061;49.068;12.058;2023-06-05T08:52:42;21.70;89.40
10042;DHT22;5061;49.068;12.058;2023-06-05T08:56:03;21.80;89.30
10042;DHT22;5061;49.068;12.058;2023-06-05T08:59:24;21.90;89.90
10042;DHT22;5061;49.068;12.058;2023-06-05T09:02:45;22.00;86.90
10042;DHT22;5061;49.068;12.058;2023-06-05T09:06:10;22.20;87.80
10042;DHT22;5061;49.068;12.058;2023-06-05T09:09:31;22.40;89.70
10042;DHT22;5061;49.068;12.058;2023-06-05T09:12:57;22.50;86.40
10042;DHT22;5061;49.068;12.058;2023-06-05T09:16:40;22.70;87.30
10042;DHT22;5061;49.068;12.058;2023-06-05T09:20:05;22.90;91.20
10042;DHT22;5061;49.068;12.058;2023-06-05T09:23:30;23.10;90.30
10042;DHT22;5061;49.068;12.058;2023-06-05T09:27:05;23.30;89.10
10042;DHT22;5061;49.068;12.058;2023-06-05T09:30:26;23.50;89.00
10042;DHT22;5061;49.068;12.058;2023-06-05T09:33:56;23.50;87.30
10042;DHT22;5061;49.068;12.058;2023-06-05T09:37:17;23.50;90.30
10042;DHT22;5061;49.068;12.058;2023-06-05T09:40:41;23.50;90.00
10042;DHT22;5061;49.068;12.058;2023-06-05T09:44:06;23.50;87.80
10042;DHT22;5061;49.068;12.058;2023-06-05T09:47:27;23.60;90.50
10042;DHT22;5061;49.068;12.058;2023-06-05T09:50:48;23.70;90.50
10042;DHT22;5061;49.068;12.058;2023-06-05T09:54:10;23.70;89.60
10042;DHT22;5061;49.068;12.058;2023-06-05T09:57:32;23.60;88.80
10042;DHT22;5061;49.068;12.058;2023-06-05T10:00:53;23.60;90.10
10042;DHT22;5061;49.068;12.058;2023-06-05T10:04:14;23.50;90.10
10042;DHT22;5061;49.068;12.058;2023-06-05T10:07:37;23.50;89.10
10042;DHT22;5061;49.068;12.058;2023-06-05T10:11:01;23.40;88.80
10042;DHT22;5061;49.068;12.058;2023-06-05T10:14:21;23.40;88.40
10042;DHT22;5061;49.068;12.058;2023-06-05T10:17:42;23.20;87.90
10042;DHT22;5061;49.068;12.058;2023-06-05T10:21:04;23.20;87.90
10042;DHT22;5061;49.068;12.058;2023-06-05T10:24:34;23.10;86.60
10042;DHT22;5061;49.068;12.058;2023-06-05T10:38:42;23.10;90.60
10042;DHT22;5061;49.068;12.058;2023-06-05T10:42:04;23.10;88.10
10042;DHT22;5061;49.068;12.058;2023-06-05T10:45:31;23.10;88.20
10042;DHT22;5061;49.068;12.058;2023-06-05T10:49:22;23.10;88.60
10042;DHT22;5061;49.068;12.058;2023-06-05T10:52:44;23.20;88.70
10042;DHT22;5061;49.068;12.058;2023-06-05T10:56:05;23.20;89.20
10042;DHT22;5061;49.068;12.058;2023-06-05T10:59:30;23.20;89.40
10042;DHT22;5061;49.068;12.058;2023-06-05T11:02:51;23.30;90.20
10042;DHT22;5061;49.068;12.058;2023-06-05T11:06:13;23.40;90.10
10042;DHT22;5061;49.068;12.058;2023-06-05T11:09:33;23.40;90.20
10042;DHT22;5061;49.068;12.058;2023-06-05T11:12:55;23.50;90.10
10042;DHT22;5061;49.068;12.058;2023-06-05T11:16:30;23.60;90.30
10042;DHT22;5061;49.068;12.058;2023-06-05T11:19:51;23.80;90.00
10042;DHT22;5061;49.068;12.058;2023-06-05T11:23:12;24.20;90.70
10042;DHT22;5061;49.068;12.058;2023-06-05T11:26:39;24.30;91.20
10042;DHT22;5061;49.068;12.058;2023-06-05T11:30:01;24.40;92.80
10042;DHT22;5061;49.068;12.058;2023-06-05T11:33:21;24.50;94.50
10042;DHT22;5061;49.068;12.058;2023-06-05T11:36:42;24.60;94.80
10042;DHT22;5061;49.068;12.058;2023-06-05T11:40:07;24.80;91.80
10042;DHT22;5061;49.068;12.058;2023-06-05T11:43:30;24.90;92.00
10042;DHT22;5061;49.068;12.058;2023-06-05T11:46:51;24.90;91.10
10042;DHT22;5061;49.068;12.058;2023-06-05T11:50:13;24.70;91.20
10042;DHT22;5061;49.068;12.058;2023-06-05T11:53:34;24.70;90.70
10042;DHT22;5061;49.068;12.058;2023-06-05T11:56:59;24.80;91.20
10042;DHT22;5061;49.068;12.058;2023-06-05T12:00:26;24.90;90.70
10042;DHT22;5061;49.068;12.058;2023-06-05T12:03:48;24.90;91.60
10042;DHT22;5061;49.068;12.058;2023-06-05T12:07:09;24.70;90.80
10042;DHT22;5061;49.068;12.058;2023-06-05T12:10:34;24.50;91.30
10042;DHT22;5061;49.068;12.058;2023-06-05T12:13:56;24.30;91.60
10042;DHT22;5061;49.068;12.058;2023-06-05T12:17:17;24.30;91.40
10042;DHT22;5061;49.068;12.058;2023-06-05T12:20:39;24.40;91.50
10042;DHT22;5061;49.068;12.058;2023-06-05T12:24:04;24.60;91.60
10042;DHT22;5061;49.068;12.058;2023-06-05T12:27:29;24.90;91.50
10042;DHT22;5061;49.068;12.058;2023-06-05T12:30:52;25.10;91.90
10042;DHT22;5061;49.068;12.058;2023-06-05T12:34:13;25.30;92.10
10042;DHT22;5061;49.068;12.058;2023-06-05T12:37:36;25.60;91.50
10042;DHT22;5061;49.068;12.058;2023-06-05T12:41:00;25.70;91.10
10042;DHT22;5061;49.068;12.058;2023-06-05T12:44:21;25.70;91.40
10042;DHT22;5061;49.068;12.058;2023-06-05T12:47:42;25.60;91.30
10042;DHT22;5061;49.068;12.058;2023-06-05T12:51:04;25.60;91.80
10042;DHT22;5061;49.068;12.058;2023-06-05T12:54:24;25.50;91.50
10042;DHT22;5061;49.068;12.058;2023-06-05T12:57:48;25.30;90.90
10042;DHT22;5061;49.068;12.058;2023-06-05T13:01:08;25.20;92.10
10042;DHT22;5061;49.068;12.058;2023-06-05T13:04:30;25.10;92.50
10042;DHT22;5061;49.068;12.058;2023-06-05T13:07:51;25.10;91.80
10042;DHT22;5061;49.068;12.058;2023-06-05T13:11:14;25.10;91.80
10042;DHT22;5061;49.068;12.058;2023-06-05T13:14:35;25.00;92.40
10042;DHT22;5061;49.068;12.058;2023-06-05T13:17:55;24.90;91.90
10042;DHT22;5061;49.068;12.058;2023-06-05T13:21:16;24.90;91.70
10042;DHT22;5061;49.068;12.058;2023-06-05T13:24:36;25.20;92.30
10042;DHT22;5061;49.068;12.058;2023-06-05T13:27:57;25.40;92.50
10042;DHT22;5061;49.068;12.058;2023-06-05T13:31:18;25.50;92.10
10042;DHT22;5061;49.068;12.058;2023-06-05T13:34:39;25.60;94.20
10042;DHT22;5061;49.068;12.058;2023-06-05T13:37:59;25.80;92.70
10042;DHT22;5061;49.068;12.058;2023-06-05T13:41:20;25.90;93.50
10042;DHT22;5061;49.068;12.058;2023-06-05T13:44:42;26.00;93.10
10042;DHT22;5061;49.068;12.058;2023-06-05T13:48:03;26.10;91.70
10042;DHT22;5061;49.068;12.058;2023-06-05T13:51:23;26.10;91.90
10042;DHT22;5061;49.068;12.058;2023-06-05T13:54:44;26.00;92.50
10042;DHT22;5061;49.068;12.058;2023-06-05T13:58:05;26.10;94.50
10042;DHT22;5061;49.068;12.058;2023-06-05T14:01:25;26.10;92.60
10042;DHT22;5061;49.068;12.058;2023-06-05T14:04:46;26.30;93.00
10042;DHT22;5061;49.068;12.058;2023-06-05T14:08:07;26.30;91.20
10042;DHT22;5061;49.068;12.058;2023-06-05T14:11:27;26.20;90.10
10042;DHT22;5061;49.068;12.058;2023-06-05T14:14:48;26.10;90.30
10042;DHT22;5061;49.068;12.058;2023-06-05T14:18:08;26.00;93.50
10042;DHT22;5061;49.068;12.058;2023-06-05T14:21:29;26.00;90.90
10042;DHT22;5061;49.068;12.058;2023-06-05T14:24:50;26.10;90.60
10042;DHT22;5061;49.068;12.058;2023-06-05T14:28:10;26.00;90.50
10042;DHT22;5061;49.068;12.058;2023-06-05T14:31:31;25.80;90.80
10042;DHT22;5061;49.068;12.058;2023-06-05T14:34:52;25.60;89.20
10042;DHT22;5061;49.068;12.058;2023-06-05T14:38:12;25.50;90.30
10042;DHT22;5061;49.068;12.058;2023-06-05T14:41:33;25.40;87.80
10042;DHT22;5061;49.068;12.058;2023-06-05T14:44:54;25.30;88.90
10042;DHT22;5061;49.068;12.058;2023-06-05T14:48:14;25.30;89.20
10042;DHT22;5061;49.068;12.058;2023-06-05T14:51:35;25.20;90.50
10042;DHT22;5061;49.068;12.058;2023-06-05T14:54:55;25.20;90.10
10042;DHT22;5061;49.068;12.058;2023-06-05T14:58:16;25.30;90.20
10042;DHT22;5061;49.068;12.058;2023-06-05T15:01:37;25.30;90.30
10042;DHT22;5061;49.068;12.058;2023-06-05T15:04:57;25.20;90.30
10042;DHT22;5061;49.068;12.058;2023-06-05T15:08:21;25.20;90.60
10042;DHT22;5061;49.068;12.058;2023-06-05T15:11:44;25.20;90.70
10042;DHT22;5061;49.068;12.058;2023-06-05T15:15:07;25.20;90.40
10042;DHT22;5061;49.068;12.058;2023-06-05T15:18:28;25.10;90.50
10042;DHT22;5061;49.068;12.058;2023-06-05T15:21:48;24.90;90.50
10042;DHT22;5061;49.068;12.058;2023-06-05T15:25:09;24.80;90.10
10042;DHT22;5061;49.068;12.058;2023-06-05T15:28:30;24.40;89.70
10042;DHT22;5061;49.068;12.058;2023-06-05T15:31:51;24.10;89.30
10042;DHT22;5061;49.068;12.058;2023-06-05T15:35:11;23.80;89.60
10042;DHT22;5061;49.068;12.058;2023-06-05T15:38:32;23.70;90.70
10042;DHT22;5061;49.068;12.058;2023-06-05T15:41:53;23.70;90.50
10042;DHT22;5061;49.068;12.058;2023-06-05T15:45:14;23.70;90.00
10042;DHT22;5061;49.068;12.058;2023-06-05T15:48:38;23.70;90.70
10042;DHT22;5061;49.068;12.058;2023-06-05T15:51:59;23.70;92.30
10042;DHT22;5061;49.068;12.058;2023-06-05T15:55:20;23.60;93.40
10042;DHT22;5061;49.068;12.058;2023-06-05T15:58:40;23.60;92.90
10042;DHT22;5061;49.068;12.058;2023-06-05T16:02:02;23.50;93.30
10042;DHT22;5061;49.068;12.058;2023-06-05T16:05:23;23.40;92.80
10042;DHT22;5061;49.068;12.058;2023-06-05T16:08:43;23.30;93.60
10042;DHT22;5061;49.068;12.058;2023-06-05T16:12:04;23.10;93.10
10042;DHT22;5061;49.068;12.058;2023-06-05T16:15:25;22.90;93.40
10042;DHT22;5061;49.068;12.058;2023-06-05T16:18:47;22.80;92.80
10042;DHT22;5061;49.068;12.058;2023-06-05T16:22:07;22.70;92.30
10042;DHT22;5061;49.068;12.058;2023-06-05T16:25:28;22.50;93.40
10042;DHT22;5061;49.068;12.058;2023-06-05T16:28:48;22.40;91.70
10042;DHT22;5061;49.068;12.058;2023-06-05T16:32:09;22.30;92.40
10042;DHT22;5061;49.068;12.058;2023-06-05T16:35:30;22.20;91.50
10042;DHT22;5061;49.068;12.058;2023-06-05T16:38:50;22.10;91.50
10042;DHT22;5061;49.068;12.058;2023-06-05T16:42:12;22.10;91.40
10042;DHT22;5061;49.068;12.058;2023-06-05T16:45:32;22.00;90.20
10042;DHT22;5061;49.068;12.058;2023-06-05T16:48:59;21.90;90.30
10042;DHT22;5061;49.068;12.058;2023-06-05T16:52:20;21.80;90.10
10042;DHT22;5061;49.068;12.058;2023-06-05T16:55:44;21.70;91.10
10042;DHT22;5061;49.068;12.058;2023-06-05T16:59:12;21.60;89.60
10042;DHT22;5061;49.068;12.058;2023-06-05T17:02:33;21.40;90.00
10042;DHT22;5061;49.068;12.058;2023-06-05T17:05:54;21.40;90.10
10042;DHT22;5061;49.068;12.058;2023-06-05T17:09:17;21.30;90.00
10042;DHT22;5061;49.068;12.058;2023-06-05T17:12:38;21.20;89.50
10042;DHT22;5061;49.068;12.058;2023-06-05T17:16:01;21.20;90.10
10042;DHT22;5061;49.068;12.058;2023-06-05T17:19:23;21.20;90.60
10042;DHT22;5061;49.068;12.058;2023-06-05T17:22:44;21.10;90.60
10042;DHT22;5061;49.068;12.058;2023-06-05T17:26:04;21.10;88.90
10042;DHT22;5061;49.068;12.058;2023-06-05T17:29:25;21.00;88.90
10042;DHT22;5061;49.068;12.058;2023-06-05T17:32:46;20.90;89.40
10042;DHT22;5061;49.068;12.058;2023-06-05T17:36:06;20.80;89.80
10042;DHT22;5061;49.068;12.058;2023-06-05T17:39:30;20.70;89.00
10042;DHT22;5061;49.068;12.058;2023-06-05T17:42:51;20.60;88.40
10042;DHT22;5061;49.068;12.058;2023-06-05T17:46:11;20.50;88.20
10042;DHT22;5061;49.068;12.058;2023-06-05T17:49:32;20.40;88.10
10042;DHT22;5061;49.068;12.058;2023-06-05T17:52:53;20.30;88.30
10042;DHT22;5061;49.068;12.058;2023-06-05T17:56:14;20.20;88.90
10042;DHT22;5061;49.068;12.058;2023-06-05T17:59:35;20.10;88.20
10042;DHT22;5061;49.068;12.058;2023-06-05T18:02:56;20.00;89.60
10042;DHT22;5061;49.068;12.058;2023-06-05T18:06:16;19.90;91.80
10042;DHT22;5061;49.068;12.058;2023-06-05T18:09:37;19.90;92.70
10042;DHT22;5061;49.068;12.058;2023-06-05T18:12:57;19.80;92.40
10042;DHT22;5061;49.068;12.058;2023-06-05T18:16:18;19.70;92.30
10042;DHT22;5061;49.068;12.058;2023-06-05T18:19:39;19.70;91.20
10042;DHT22;5061;49.068;12.058;2023-06-05T18:23:01;19.60;88.10
10042;DHT22;5061;49.068;12.058;2023-06-05T18:26:22;19.50;99.90
10042;DHT22;5061;49.068;12.058;2023-06-05T18:29:45;19.40;90.20
10042;DHT22;5061;49.068;12.058;2023-06-05T18:33:05;19.30;90.70
10042;DHT22;5061;49.068;12.058;2023-06-05T18:36:26;19.20;90.10
10042;DHT22;5061;49.068;12.058;2023-06-05T18:39:47;19.10;89.80
10042;DHT22;5061;49.068;12.058;2023-06-05T18:43:07;19.10;90.30
10042;DHT22;5061;49.068;12.058;2023-06-05T18:46:30;19.00;90.20
10042;DHT22;5061;49.068;12.058;2023-06-05T18:49:51;18.90;89.10
10042;DHT22;5061;49.068;12.058;2023-06-05T18:53:12;18.80;90.10
10042;DHT22;5061;49.068;12.058;2023-06-05T18:56:33;18.80;88.80
10042;DHT22;5061;49.068;12.058;2023-06-05T18:59:53;18.80;90.10
10042;DHT22;5061;49.068;12.058;2023-06-05T19:03:14;18.70;90.30
10042;DHT22;5061;49.068;12.058;2023-06-05T19:06:35;18.70;90.10
10042;DHT22;5061;49.068;12.058;2023-06-05T19:09:56;18.60;89.80
10042;DHT22;5061;49.068;12.058;2023-06-05T19:13:20;18.50;90.50
10042;DHT22;5061;49.068;12.058;2023-06-05T19:16:40;18.50;90.00
10042;DHT22;5061;49.068;12.058;2023-06-05T19:20:01;18.40;91.20
10042;DHT22;5061;49.068;12.058;2023-06-05T19:23:23;18.30;91.30
10042;DHT22;5061;49.068;12.058;2023-06-05T19:26:44;18.30;90.20
10042;DHT22;5061;49.068;12.058;2023-06-05T19:30:05;18.20;90.90
10042;DHT22;5061;49.068;12.058;2023-06-05T19:33:26;18.10;90.80
10042;DHT22;5061;49.068;12.058;2023-06-05T19:36:47;18.00;92.00
10042;DHT22;5061;49.068;12.058;2023-06-05T19:40:07;18.00;91.50
10042;DHT22;5061;49.068;12.058;2023-06-05T19:43:28;17.90;91.60
10042;DHT22;5061;49.068;12.058;2023-06-05T19:46:49;17.80;92.50
10042;DHT22;5061;49.068;12.058;2023-06-05T19:50:09;17.80;92.20
10042;DHT22;5061;49.068;12.058;2023-06-05T19:53:30;17.80;92.10
10042;DHT22;5061;49.068;12.058;2023-06-05T19:56:51;17.80;92.50
10042;DHT22;5061;49.068;12.058;2023-06-05T20:00:12;17.80;93.10
10042;DHT22;5061;49.068;12.058;2023-06-05T20:03:33;17.70;93.20
10042;DHT22;5061;49.068;12.058;2023-06-05T20:06:55;17.70;99.90
10042;DHT22;5061;49.068;12.058;2023-06-05T20:10:15;17.70;99.90
10042;DHT22;5061;49.068;12.058;2023-06-05T20:13:36;17.60;93.10
10042;DHT22;5061;49.068;12.058;2023-06-05T20:16:57;17.60;93.30
10042;DHT22;5061;49.068;12.058;2023-06-05T20:20:17;17.50;93.30
10042;DHT22;5061;49.068;12.058;2023-06-05T20:23:38;17.50;93.40
10042;DHT22;5061;49.068;12.058;2023-06-05T20:26:59;17.40;93.30
10042;DHT22;5061;49.068;12.058;2023-06-05T20:30:20;17.40;93.50
10042;DHT22;5061;49.068;12.058;2023-06-05T20:33:40;17.30;94.00
10042;DHT22;5061;49.068;12.058;2023-06-05T20:37:01;17.30;93.50
10042;DHT22;5061;49.068;12.058;2023-06-05T20:40:25;17.20;94.20
10042;DHT22;5061;49.068;12.058;2023-06-05T20:43:50;17.10;94.20
10042;DHT22;5061;49.068;12.058;2023-06-05T20:47:11;17.10;93.40
10042;DHT22;5061;49.068;12.058;2023-06-05T20:50:38;17.10;92.30
10042;DHT22;5061;49.068;12.058;2023-06-05T20:53:58;17.00;93.30
10042;DHT22;5061;49.068;12.058;2023-06-05T20:57:19;16.90;93.50
10042;DHT22;5061;49.068;12.058;2023-06-05T21:00:40;16.90;93.30
10042;DHT22;5061;49.068;12.058;2023-06-05T21:04:02;16.80;94.00
10042;DHT22;5061;49.068;12.058;2023-06-05T21:07:23;16.80;94.50
10042;DHT22;5061;49.068;12.058;2023-06-05T21:10:43;16.80;94.00
10042;DHT22;5061;49.068;12.058;2023-06-05T21:14:04;16.70;93.50
10042;DHT22;5061;49.068;12.058;2023-06-05T21:17:25;16.70;94.40
10042;DHT22;5061;49.068;12.058;2023-06-05T21:20:45;16.70;94.60
10042;DHT22;5061;49.068;12.058;2023-06-05T21:24:07;16.70;95.20
10042;DHT22;5061;49.068;12.058;2023-06-05T21:27:27;16.60;96.30